Jack Odom — WDC6519 — position and weather

sailwx.info

Track history (hours):
 
Tides and Currents Weather Stations Pressure Air Temp Water Temp Dewpoint Dewpoint Depression Visibility Wind Speed Wind Dir Waves Ship Positions

Jack Odom

Owner: American Commercial Lines LLC, Jeffersonville, IN. More information available from US FCC via Universal Licensing System and Coast Guard Vessel Documentation Center.

Last reported at 2018-Apr-10 17:39 UTC. Time now 2018-Apr-24 16:42 UTC.
Position N 39°12' W 090°36'.
Warning: this ship's position is 13 days out of date.

; draft 2.6 m.

Type: . MMSI: 367057420.

Date/timePositionNaut miles runAvg speedWind from/ knotsBaromVisibWave heightAir tempDewpointWater temp
2018-Apr-10 17:39N 39°12' W 090°36'1 4.0
2018-Apr-10 17:27N 39°12' W 090°36'2 4.0
2018-Apr-10 17:00N 39°10' W 090°37'2 4.3
2018-Apr-10 16:30N 39°08' W 090°37'2 4.3
2018-Apr-10 16:01N 39°06' W 090°36'2 4.2
2018-Apr-10 15:31N 39°04' W 090°35'2 3.1
2018-Apr-10 15:00N 39°02' W 090°35'2 4.0
2018-Apr-10 14:31N 39°00' W 090°35'2 4.1
2018-Apr-10 14:00N 38°59' W 090°33'2 4.5
2018-Apr-10 13:31N 38°57' W 090°31'2 4.9
2018-Apr-10 13:00N 38°58' W 090°28'2 4.5
2018-Apr-10 12:31N 38°58' W 090°25'2 4.6
2018-Apr-10 12:01N 38°57' W 090°22'2 4.8
2018-Apr-10 11:30N 38°56' W 090°20'2 4.7
2018-Apr-10 11:01N 38°55' W 090°17'2 4.7
2018-Apr-10 10:30N 38°55' W 090°14'2 4.5
2018-Apr-10 10:01N 38°53' W 090°12'2 4.7
2018-Apr-10 09:30N 38°52' W 090°09'0 0.6
2018-Apr-10 09:00N 38°52' W 090°09'1 2.7
2018-Apr-10 08:30N 38°51' W 090°07'2 3.0
2018-Apr-10 08:00N 38°50' W 090°07'2 3.6
2018-Apr-10 07:31N 38°48' W 090°07'3 5.5
2018-Apr-10 07:00N 38°46' W 090°08'2 4.6
2018-Apr-10 06:31N 38°44' W 090°10'2 3.5
2018-Apr-10 06:00N 38°42' W 090°11'1 1.3
2018-Apr-10 05:29N 38°42' W 090°11'2 3.8
2018-Apr-10 05:01N 38°40' W 090°11'2 3.0
2018-Apr-10 04:19N 38°38' W 090°11'1 1.5
2018-Apr-10 03:59N 38°37' W 090°11'  
2018-Apr-01 14:15N 32°52' W 091°06'1 3.5
2018-Apr-01 13:54N 32°51' W 091°07'2 4.0
2018-Apr-01 13:28N 32°50' W 091°08'3 3.8
2018-Apr-01 12:42N 32°47' W 091°09'1 3.7
2018-Apr-01 12:31N 32°46' W 091°10'6 2.0
2018-Apr-01 09:21N 32°40' W 091°08'2 3.9
2018-Apr-01 08:51N 32°38' W 091°09'1 3.8
2018-Apr-01 08:28N 32°37' W 091°09'2 3.6
2018-Apr-01 08:00N 32°35' W 091°08'2 3.5
2018-Apr-01 07:31N 32°34' W 091°06'2 3.3
2018-Apr-01 07:00N 32°32' W 091°06'2 3.5
2018-Apr-01 06:30N 32°31' W 091°07'2 3.9
2018-Apr-01 06:00N 32°29' W 091°07'2 3.6
2018-Apr-01 05:30N 32°27' W 091°05'2 4.3
2018-Apr-01 05:01N 32°26' W 091°03'2 3.8
2018-Apr-01 04:31N 32°26' W 091°01'2 3.7
2018-Apr-01 04:01N 32°24' W 090°60'2 3.8
2018-Apr-01 03:31N 32°22' W 091°00'2 3.2
2018-Apr-01 03:00N 32°21' W 090°59'2 4.5
2018-Apr-01 02:30N 32°21' W 090°57'2 4.4
2018-Apr-01 02:01N 32°20' W 090°54'1 3.0
2018-Apr-01 01:30N 32°18' W 090°55'1 1.5
2018-Apr-01 01:00N 32°18' W 090°56'0 0.0
2018-Apr-01 00:31N 32°18' W 090°56'0 0.0
2018-Apr-01 00:00N 32°18' W 090°56'0 0.0
2018-Mar-31 23:30N 32°18' W 090°56'0 0.0
2018-Mar-31 23:00N 32°18' W 090°56'0 0.4
2018-Mar-31 22:31N 32°18' W 090°56'2 3.1
2018-Mar-31 22:01N 32°17' W 090°57'2 3.2
2018-Mar-31 21:30N 32°15' W 090°58'2 4.0
2018-Mar-31 21:00N 32°14' W 090°59'2 3.2
2018-Mar-31 20:30N 32°12' W 090°60'1 2.9
2018-Mar-31 20:01N 32°11' W 090°60'2 3.2
2018-Mar-31 19:31N 32°09' W 091°00'2 3.1
2018-Mar-31 19:00N 32°08' W 091°01'1 2.8
2018-Mar-31 18:28N 32°07' W 091°03'2 4.7
2018-Mar-31 17:58N 32°08' W 091°06'  
Track history (hours):
 
Tides and Currents Weather Stations Pressure Air Temp Water Temp Dewpoint Dewpoint Depression Visibility Wind Speed Wind Dir Waves Ship Positions

Jack Odom

Owner: American Commercial Lines LLC, Jeffersonville, IN. More information available from US FCC via Universal Licensing System and Coast Guard Vessel Documentation Center.

Last reported at 2018-Apr-10 17:39 UTC. Time now 2018-Apr-24 16:42 UTC.
Position N 39°12' W 090°36'.
Warning: this ship's position is 13 days out of date.

; draft 2.6 m.

Type: . MMSI: 367057420.

Date/timePositionNaut miles runAvg speedWind from/ knotsBaromVisibWave heightAir tempDewpointWater temp
2018-Apr-10 17:39N 39°12' W 090°36'1 4.0
2018-Apr-10 17:27N 39°12' W 090°36'2 4.0
2018-Apr-10 17:00N 39°10' W 090°37'2 4.3
2018-Apr-10 16:30N 39°08' W 090°37'2 4.3
2018-Apr-10 16:01N 39°06' W 090°36'2 4.2
2018-Apr-10 15:31N 39°04' W 090°35'2 3.1
2018-Apr-10 15:00N 39°02' W 090°35'2 4.0
2018-Apr-10 14:31N 39°00' W 090°35'2 4.1
2018-Apr-10 14:00N 38°59' W 090°33'2 4.5
2018-Apr-10 13:31N 38°57' W 090°31'2 4.9
2018-Apr-10 13:00N 38°58' W 090°28'2 4.5
2018-Apr-10 12:31N 38°58' W 090°25'2 4.6
2018-Apr-10 12:01N 38°57' W 090°22'2 4.8
2018-Apr-10 11:30N 38°56' W 090°20'2 4.7
2018-Apr-10 11:01N 38°55' W 090°17'2 4.7
2018-Apr-10 10:30N 38°55' W 090°14'2 4.5
2018-Apr-10 10:01N 38°53' W 090°12'2 4.7
2018-Apr-10 09:30N 38°52' W 090°09'0 0.6
2018-Apr-10 09:00N 38°52' W 090°09'1 2.7
2018-Apr-10 08:30N 38°51' W 090°07'2 3.0
2018-Apr-10 08:00N 38°50' W 090°07'2 3.6
2018-Apr-10 07:31N 38°48' W 090°07'3 5.5
2018-Apr-10 07:00N 38°46' W 090°08'2 4.6
2018-Apr-10 06:31N 38°44' W 090°10'2 3.5
2018-Apr-10 06:00N 38°42' W 090°11'1 1.3
2018-Apr-10 05:29N 38°42' W 090°11'2 3.8
2018-Apr-10 05:01N 38°40' W 090°11'2 3.0
2018-Apr-10 04:19N 38°38' W 090°11'1 1.5
2018-Apr-10 03:59N 38°37' W 090°11'  
2018-Apr-01 14:15N 32°52' W 091°06'1 3.5
2018-Apr-01 13:54N 32°51' W 091°07'2 4.0
2018-Apr-01 13:28N 32°50' W 091°08'3 3.8
2018-Apr-01 12:42N 32°47' W 091°09'1 3.7
2018-Apr-01 12:31N 32°46' W 091°10'6 2.0
2018-Apr-01 09:21N 32°40' W 091°08'2 3.9
2018-Apr-01 08:51N 32°38' W 091°09'1 3.8
2018-Apr-01 08:28N 32°37' W 091°09'2 3.6
2018-Apr-01 08:00N 32°35' W 091°08'2 3.5
2018-Apr-01 07:31N 32°34' W 091°06'2 3.3
2018-Apr-01 07:00N 32°32' W 091°06'2 3.5
2018-Apr-01 06:30N 32°31' W 091°07'2 3.9
2018-Apr-01 06:00N 32°29' W 091°07'2 3.6
2018-Apr-01 05:30N 32°27' W 091°05'2 4.3
2018-Apr-01 05:01N 32°26' W 091°03'2 3.8
2018-Apr-01 04:31N 32°26' W 091°01'2 3.7
2018-Apr-01 04:01N 32°24' W 090°60'2 3.8
2018-Apr-01 03:31N 32°22' W 091°00'2 3.2
2018-Apr-01 03:00N 32°21' W 090°59'2 4.5
2018-Apr-01 02:30N 32°21' W 090°57'2 4.4
2018-Apr-01 02:01N 32°20' W 090°54'1 3.0
2018-Apr-01 01:30N 32°18' W 090°55'1 1.5
2018-Apr-01 01:00N 32°18' W 090°56'0 0.0
2018-Apr-01 00:31N 32°18' W 090°56'0 0.0
2018-Apr-01 00:00N 32°18' W 090°56'0 0.0
2018-Mar-31 23:30N 32°18' W 090°56'0 0.0
2018-Mar-31 23:00N 32°18' W 090°56'0 0.4
2018-Mar-31 22:31N 32°18' W 090°56'2 3.1
2018-Mar-31 22:01N 32°17' W 090°57'2 3.2
2018-Mar-31 21:30N 32°15' W 090°58'2 4.0
2018-Mar-31 21:00N 32°14' W 090°59'2 3.2
2018-Mar-31 20:30N 32°12' W 090°60'1 2.9
2018-Mar-31 20:01N 32°11' W 090°60'2 3.2
2018-Mar-31 19:31N 32°09' W 091°00'2 3.1
2018-Mar-31 19:00N 32°08' W 091°01'1 2.8
2018-Mar-31 18:28N 32°07' W 091°03'2 4.7
2018-Mar-31 17:58N 32°08' W 091°06'  

Dump ship's entire track history